sensor_id;sensor_type;location;lat;lon;timestamp;P1;durP1;ratioP1;P2;durP2;ratioP2
70967;SDS011;58629;48.808;8.820;2022-08-21T00:00:43;0.83;;;0.67;;
70967;SDS011;58629;48.808;8.820;2022-08-21T00:03:10;1.35;;;0.98;;
70967;SDS011;58629;48.808;8.820;2022-08-21T00:05:37;0.75;;;0.70;;
70967;SDS011;58629;48.808;8.820;2022-08-21T00:08:06;0.45;;;0.45;;
70967;SDS011;58629;48.808;8.820;2022-08-21T00:10:32;0.60;;;0.57;;
70967;SDS011;58629;48.808;8.820;2022-08-21T00:12:58;0.80;;;0.60;;
70967;SDS011;58629;48.808;8.820;2022-08-21T00:15:27;0.75;;;0.70;;
70967;SDS011;58629;48.808;8.820;2022-08-21T00:17:54;0.83;;;0.60;;
70967;SDS011;58629;48.808;8.820;2022-08-21T00:20:20;0.68;;;0.60;;
70967;SDS011;58629;48.808;8.820;2022-08-21T00:22:47;0.50;;;0.40;;
70967;SDS011;58629;48.808;8.820;2022-08-21T00:25:13;0.70;;;0.65;;
70967;SDS011;58629;48.808;8.820;2022-08-21T00:27:39;0.90;;;0.85;;
70967;SDS011;58629;48.808;8.820;2022-08-21T00:30:07;0.80;;;0.80;;
70967;SDS011;58629;48.808;8.820;2022-08-21T00:32:33;0.90;;;0.80;;
70967;SDS011;58629;48.808;8.820;2022-08-21T00:35:01;1.00;;;0.70;;
70967;SDS011;58629;48.808;8.820;2022-08-21T00:37:26;1.00;;;0.90;;
70967;SDS011;58629;48.808;8.820;2022-08-21T00:39:52;2.20;;;1.10;;
70967;SDS011;58629;48.808;8.820;2022-08-21T00:42:18;1.67;;;1.10;;
70967;SDS011;58629;48.808;8.820;2022-08-21T00:44:45;1.80;;;1.20;;
70967;SDS011;58629;48.808;8.820;2022-08-21T00:47:12;2.33;;;1.70;;
70967;SDS011;58629;48.808;8.820;2022-08-21T00:49:38;1.80;;;1.40;;
70967;SDS011;58629;48.808;8.820;2022-08-21T00:52:05;2.03;;;1.30;;
70967;SDS011;58629;48.808;8.820;2022-08-21T00:54:34;1.45;;;1.00;;
70967;SDS011;58629;48.808;8.820;2022-08-21T00:57:01;1.33;;;1.23;;
70967;SDS011;58629;48.808;8.820;2022-08-21T00:59:32;1.30;;;0.90;;
70967;SDS011;58629;48.808;8.820;2022-08-21T01:02:03;0.90;;;0.85;;
70967;SDS011;58629;48.808;8.820;2022-08-21T01:04:32;1.23;;;0.80;;
70967;SDS011;58629;48.808;8.820;2022-08-21T01:06:57;1.40;;;1.17;;
70967;SDS011;58629;48.808;8.820;2022-08-21T01:09:22;1.20;;;1.10;;
70967;SDS011;58629;48.808;8.820;2022-08-21T01:11:48;0.83;;;0.83;;
70967;SDS011;58629;48.808;8.820;2022-08-21T01:14:14;1.60;;;1.20;;
70967;SDS011;58629;48.808;8.820;2022-08-21T01:16:40;1.52;;;1.10;;
70967;SDS011;58629;48.808;8.820;2022-08-21T01:19:09;1.92;;;1.38;;
70967;SDS011;58629;48.808;8.820;2022-08-21T01:21:36;1.35;;;1.00;;
70967;SDS011;58629;48.808;8.820;2022-08-21T01:24:01;1.83;;;1.10;;
70967;SDS011;58629;48.808;8.820;2022-08-21T01:26:30;1.27;;;0.73;;
70967;SDS011;58629;48.808;8.820;2022-08-21T01:29:05;1.07;;;0.80;;
70967;SDS011;58629;48.808;8.820;2022-08-21T01:31:36;0.80;;;0.70;;
70967;SDS011;58629;48.808;8.820;2022-08-21T01:34:03;1.23;;;1.00;;
70967;SDS011;58629;48.808;8.820;2022-08-21T01:36:29;0.70;;;0.63;;
70967;SDS011;58629;48.808;8.820;2022-08-21T01:38:55;1.17;;;0.70;;
70967;SDS011;58629;48.808;8.820;2022-08-21T01:41:21;1.30;;;0.90;;
70967;SDS011;58629;48.808;8.820;2022-08-21T01:43:46;1.47;;;0.90;;
70967;SDS011;58629;48.808;8.820;2022-08-21T01:46:11;1.17;;;0.90;;
70967;SDS011;58629;48.808;8.820;2022-08-21T01:48:38;1.83;;;1.30;;
70967;SDS011;58629;48.808;8.820;2022-08-21T01:51:03;1.80;;;1.20;;
70967;SDS011;58629;48.808;8.820;2022-08-21T01:53:29;1.80;;;1.10;;
70967;SDS011;58629;48.808;8.820;2022-08-21T01:55:54;1.00;;;0.90;;
70967;SDS011;58629;48.808;8.820;2022-08-21T01:58:20;1.20;;;0.83;;
70967;SDS011;58629;48.808;8.820;2022-08-21T02:00:45;1.58;;;1.10;;
70967;SDS011;58629;48.808;8.820;2022-08-21T02:03:10;0.73;;;0.70;;
70967;SDS011;58629;48.808;8.820;2022-08-21T02:05:36;0.70;;;0.70;;
70967;SDS011;58629;48.808;8.820;2022-08-21T02:08:01;0.80;;;0.70;;
70967;SDS011;58629;48.808;8.820;2022-08-21T02:10:29;0.93;;;0.87;;
70967;SDS011;58629;48.808;8.820;2022-08-21T02:12:57;0.60;;;0.50;;
70967;SDS011;58629;48.808;8.820;2022-08-21T02:15:23;0.75;;;0.75;;
70967;SDS011;58629;48.808;8.820;2022-08-21T02:17:50;1.20;;;0.60;;
70967;SDS011;58629;48.808;8.820;2022-08-21T02:20:22;0.80;;;0.77;;
70967;SDS011;58629;48.808;8.820;2022-08-21T02:22:49;0.90;;;0.63;;
70967;SDS011;58629;48.808;8.820;2022-08-21T02:25:15;0.50;;;0.50;;
70967;SDS011;58629;48.808;8.820;2022-08-21T02:27:43;1.23;;;0.90;;
70967;SDS011;58629;48.808;8.820;2022-08-21T02:30:11;1.00;;;0.90;;
70967;SDS011;58629;48.808;8.820;2022-08-21T02:32:39;1.00;;;0.90;;
70967;SDS011;58629;48.808;8.820;2022-08-21T02:35:05;1.20;;;0.90;;
70967;SDS011;58629;48.808;8.820;2022-08-21T02:37:32;1.20;;;1.00;;
70967;SDS011;58629;48.808;8.820;2022-08-21T02:39:58;0.80;;;0.80;;
70967;SDS011;58629;48.808;8.820;2022-08-21T02:42:25;0.90;;;0.80;;
70967;SDS011;58629;48.808;8.820;2022-08-21T02:44:50;0.80;;;0.70;;
70967;SDS011;58629;48.808;8.820;2022-08-21T02:47:16;1.00;;;0.70;;
70967;SDS011;58629;48.808;8.820;2022-08-21T02:49:41;1.52;;;0.70;;
70967;SDS011;58629;48.808;8.820;2022-08-21T02:52:06;0.93;;;0.75;;
70967;SDS011;58629;48.808;8.820;2022-08-21T02:54:31;0.85;;;0.70;;
70967;SDS011;58629;48.808;8.820;2022-08-21T02:56:57;1.02;;;0.77;;
70967;SDS011;58629;48.808;8.820;2022-08-21T02:59:22;1.67;;;1.20;;
70967;SDS011;58629;48.808;8.820;2022-08-21T03:01:47;2.10;;;1.07;;
70967;SDS011;58629;48.808;8.820;2022-08-21T03:04:13;1.03;;;0.80;;
70967;SDS011;58629;48.808;8.820;2022-08-21T03:06:38;1.23;;;1.00;;
70967;SDS011;58629;48.808;8.820;2022-08-21T03:09:03;1.87;;;1.27;;
70967;SDS011;58629;48.808;8.820;2022-08-21T03:11:29;1.27;;;1.00;;
70967;SDS011;58629;48.808;8.820;2022-08-21T03:13:54;1.53;;;1.00;;
70967;SDS011;58629;48.808;8.820;2022-08-21T03:16:19;1.70;;;1.20;;
70967;SDS011;58629;48.808;8.820;2022-08-21T03:18:45;1.70;;;1.05;;
70967;SDS011;58629;48.808;8.820;2022-08-21T03:21:11;1.20;;;0.90;;
70967;SDS011;58629;48.808;8.820;2022-08-21T03:23:37;1.33;;;0.90;;
70967;SDS011;58629;48.808;8.820;2022-08-21T03:26:04;1.60;;;1.20;;
70967;SDS011;58629;48.808;8.820;2022-08-21T03:28:30;1.00;;;0.90;;
70967;SDS011;58629;48.808;8.820;2022-08-21T03:30:55;1.40;;;0.90;;
70967;SDS011;58629;48.808;8.820;2022-08-21T03:33:21;1.00;;;0.82;;
70967;SDS011;58629;48.808;8.820;2022-08-21T03:35:59;1.10;;;0.90;;
70967;SDS011;58629;48.808;8.820;2022-08-21T03:38:27;0.93;;;0.70;;
70967;SDS011;58629;48.808;8.820;2022-08-21T03:40:53;1.23;;;0.80;;
70967;SDS011;58629;48.808;8.820;2022-08-21T03:43:19;1.67;;;0.97;;
70967;SDS011;58629;48.808;8.820;2022-08-21T03:45:45;1.25;;;0.95;;
70967;SDS011;58629;48.808;8.820;2022-08-21T03:48:10;1.70;;;0.83;;
70967;SDS011;58629;48.808;8.820;2022-08-21T03:50:37;0.80;;;0.80;;
70967;SDS011;58629;48.808;8.820;2022-08-21T03:53:05;1.25;;;0.85;;
70967;SDS011;58629;48.808;8.820;2022-08-21T03:55:31;0.98;;;0.82;;
70967;SDS011;58629;48.808;8.820;2022-08-21T03:57:56;1.37;;;1.13;;
70967;SDS011;58629;48.808;8.820;2022-08-21T04:00:21;1.37;;;0.93;;
70967;SDS011;58629;48.808;8.820;2022-08-21T04:02:48;2.15;;;1.20;;
70967;SDS011;58629;48.808;8.820;2022-08-21T04:05:14;1.27;;;0.90;;
70967;SDS011;58629;48.808;8.820;2022-08-21T04:07:52;1.30;;;1.20;;
70967;SDS011;58629;48.808;8.820;2022-08-21T04:10:20;1.27;;;0.95;;
70967;SDS011;58629;48.808;8.820;2022-08-21T04:12:45;1.00;;;0.90;;
70967;SDS011;58629;48.808;8.820;2022-08-21T04:15:11;1.07;;;0.83;;
70967;SDS011;58629;48.808;8.820;2022-08-21T04:17:37;1.20;;;0.90;;
70967;SDS011;58629;48.808;8.820;2022-08-21T04:20:03;1.07;;;0.87;;
70967;SDS011;58629;48.808;8.820;2022-08-21T04:22:29;1.42;;;1.05;;
70967;SDS011;58629;48.808;8.820;2022-08-21T04:24:54;3.80;;;2.40;;
70967;SDS011;58629;48.808;8.820;2022-08-21T04:27:19;2.50;;;1.90;;
70967;SDS011;58629;48.808;8.820;2022-08-21T04:29:44;2.10;;;1.60;;
70967;SDS011;58629;48.808;8.820;2022-08-21T04:32:10;1.67;;;1.40;;
70967;SDS011;58629;48.808;8.820;2022-08-21T04:34:35;1.50;;;1.40;;
70967;SDS011;58629;48.808;8.820;2022-08-21T04:37:01;1.45;;;1.10;;
70967;SDS011;58629;48.808;8.820;2022-08-21T04:39:26;1.50;;;1.30;;
70967;SDS011;58629;48.808;8.820;2022-08-21T04:41:51;0.97;;;0.87;;
70967;SDS011;58629;48.808;8.820;2022-08-21T04:44:17;1.07;;;0.87;;
70967;SDS011;58629;48.808;8.820;2022-08-21T04:46:42;1.20;;;1.10;;
70967;SDS011;58629;48.808;8.820;2022-08-21T04:49:07;1.67;;;1.10;;
70967;SDS011;58629;48.808;8.820;2022-08-21T04:51:34;1.40;;;0.80;;
70967;SDS011;58629;48.808;8.820;2022-08-21T04:54:06;1.30;;;0.90;;
70967;SDS011;58629;48.808;8.820;2022-08-21T04:56:37;1.38;;;1.00;;
70967;SDS011;58629;48.808;8.820;2022-08-21T04:59:21;1.15;;;0.90;;
70967;SDS011;58629;48.808;8.820;2022-08-21T05:01:51;1.80;;;1.25;;
70967;SDS011;58629;48.808;8.820;2022-08-21T05:04:21;2.10;;;1.17;;
70967;SDS011;58629;48.808;8.820;2022-08-21T05:06:49;1.38;;;0.90;;
70967;SDS011;58629;48.808;8.820;2022-08-21T05:09:17;1.23;;;1.10;;
70967;SDS011;58629;48.808;8.820;2022-08-21T05:11:44;1.15;;;0.70;;
70967;SDS011;58629;48.808;8.820;2022-08-21T05:14:10;1.00;;;0.80;;
70967;SDS011;58629;48.808;8.820;2022-08-21T05:16:36;0.80;;;0.70;;
70967;SDS011;58629;48.808;8.820;2022-08-21T05:19:01;1.10;;;1.00;;
70967;SDS011;58629;48.808;8.820;2022-08-21T05:21:27;1.33;;;1.00;;
70967;SDS011;58629;48.808;8.820;2022-08-21T05:23:52;1.20;;;0.90;;
70967;SDS011;58629;48.808;8.820;2022-08-21T05:26:17;1.00;;;0.90;;
70967;SDS011;58629;48.808;8.820;2022-08-21T05:28:43;1.20;;;0.90;;
70967;SDS011;58629;48.808;8.820;2022-08-21T05:31:08;1.50;;;0.80;;
70967;SDS011;58629;48.808;8.820;2022-08-21T05:33:33;1.70;;;1.20;;
70967;SDS011;58629;48.808;8.820;2022-08-21T05:35:58;1.00;;;0.90;;
70967;SDS011;58629;48.808;8.820;2022-08-21T05:38:24;0.90;;;0.77;;
70967;SDS011;58629;48.808;8.820;2022-08-21T05:40:52;1.27;;;1.17;;
70967;SDS011;58629;48.808;8.820;2022-08-21T05:43:17;1.13;;;0.95;;
70967;SDS011;58629;48.808;8.820;2022-08-21T05:45:43;0.80;;;0.70;;
70967;SDS011;58629;48.808;8.820;2022-08-21T05:48:08;0.87;;;0.77;;
70967;SDS011;58629;48.808;8.820;2022-08-21T05:50:45;2.53;;;1.65;;
70967;SDS011;58629;48.808;8.820;2022-08-21T05:53:12;1.40;;;1.30;;
70967;SDS011;58629;48.808;8.820;2022-08-21T05:55:38;1.50;;;1.15;;
70967;SDS011;58629;48.808;8.820;2022-08-21T05:58:04;1.30;;;1.05;;
70967;SDS011;58629;48.808;8.820;2022-08-21T06:00:30;1.52;;;1.30;;
70967;SDS011;58629;48.808;8.820;2022-08-21T06:02:55;1.20;;;1.10;;
70967;SDS011;58629;48.808;8.820;2022-08-21T06:05:20;3.60;;;2.40;;
70967;SDS011;58629;48.808;8.820;2022-08-21T06:07:46;2.33;;;1.80;;
70967;SDS011;58629;48.808;8.820;2022-08-21T06:10:11;2.60;;;1.70;;
70967;SDS011;58629;48.808;8.820;2022-08-21T06:12:36;2.03;;;1.47;;
70967;SDS011;58629;48.808;8.820;2022-08-21T06:15:02;3.83;;;2.10;;
70967;SDS011;58629;48.808;8.820;2022-08-21T06:17:28;3.42;;;2.38;;
70967;SDS011;58629;48.808;8.820;2022-08-21T06:19:53;2.30;;;1.60;;
70967;SDS011;58629;48.808;8.820;2022-08-21T06:22:19;2.20;;;1.70;;
70967;SDS011;58629;48.808;8.820;2022-08-21T06:24:45;2.17;;;1.67;;
70967;SDS011;58629;48.808;8.820;2022-08-21T06:27:11;2.00;;;1.70;;
70967;SDS011;58629;48.808;8.820;2022-08-21T06:29:36;1.83;;;1.55;;
70967;SDS011;58629;48.808;8.820;2022-08-21T06:32:02;2.40;;;2.00;;
70967;SDS011;58629;48.808;8.820;2022-08-21T06:34:28;2.65;;;2.00;;
70967;SDS011;58629;48.808;8.820;2022-08-21T06:36:54;4.13;;;2.80;;
70967;SDS011;58629;48.808;8.820;2022-08-21T06:39:19;2.57;;;1.93;;
70967;SDS011;58629;48.808;8.820;2022-08-21T06:41:44;2.73;;;2.10;;
70967;SDS011;58629;48.808;8.820;2022-08-21T06:44:09;3.13;;;2.30;;
70967;SDS011;58629;48.808;8.820;2022-08-21T06:46:35;2.57;;;2.03;;
70967;SDS011;58629;48.808;8.820;2022-08-21T06:49:00;2.75;;;2.20;;
70967;SDS011;58629;48.808;8.820;2022-08-21T06:51:25;2.80;;;2.10;;
70967;SDS011;58629;48.808;8.820;2022-08-21T06:53:51;3.63;;;2.63;;
70967;SDS011;58629;48.808;8.820;2022-08-21T06:56:17;3.60;;;2.38;;
70967;SDS011;58629;48.808;8.820;2022-08-21T06:58:43;2.55;;;2.22;;
70967;SDS011;58629;48.808;8.820;2022-08-21T07:01:09;3.17;;;2.23;;
70967;SDS011;58629;48.808;8.820;2022-08-21T07:03:36;2.30;;;1.80;;
70967;SDS011;58629;48.808;8.820;2022-08-21T07:06:04;2.20;;;1.70;;
70967;SDS011;58629;48.808;8.820;2022-08-21T07:08:31;2.33;;;1.80;;
70967;SDS011;58629;48.808;8.820;2022-08-21T07:10:57;2.27;;;1.70;;
70967;SDS011;58629;48.808;8.820;2022-08-21T07:13:24;2.53;;;1.80;;
70967;SDS011;58629;48.808;8.820;2022-08-21T07:15:49;3.00;;;2.10;;
70967;SDS011;58629;48.808;8.820;2022-08-21T07:18:15;2.93;;;2.63;;
70967;SDS011;58629;48.808;8.820;2022-08-21T07:20:40;2.47;;;1.90;;
70967;SDS011;58629;48.808;8.820;2022-08-21T07:23:08;2.97;;;2.17;;
70967;SDS011;58629;48.808;8.820;2022-08-21T07:25:36;3.53;;;2.38;;
70967;SDS011;58629;48.808;8.820;2022-08-21T07:28:02;2.60;;;2.03;;
70967;SDS011;58629;48.808;8.820;2022-08-21T07:30:27;2.73;;;2.10;;
70967;SDS011;58629;48.808;8.820;2022-08-21T07:32:53;2.10;;;1.80;;
70967;SDS011;58629;48.808;8.820;2022-08-21T07:35:21;2.03;;;1.80;;
70967;SDS011;58629;48.808;8.820;2022-08-21T07:37:47;3.30;;;2.20;;
70967;SDS011;58629;48.808;8.820;2022-08-21T07:40:13;2.83;;;2.00;;
70967;SDS011;58629;48.808;8.820;2022-08-21T07:42:44;3.72;;;2.50;;
70967;SDS011;58629;48.808;8.820;2022-08-21T07:45:12;3.33;;;2.17;;
70967;SDS011;58629;48.808;8.820;2022-08-21T07:47:38;2.55;;;2.10;;
70967;SDS011;58629;48.808;8.820;2022-08-21T07:50:04;4.53;;;2.70;;
70967;SDS011;58629;48.808;8.820;2022-08-21T07:52:31;3.70;;;2.25;;
70967;SDS011;58629;48.808;8.820;2022-08-21T07:54:57;4.03;;;2.58;;
70967;SDS011;58629;48.808;8.820;2022-08-21T07:57:22;7.13;;;3.83;;
70967;SDS011;58629;48.808;8.820;2022-08-21T07:59:48;5.37;;;3.33;;
70967;SDS011;58629;48.808;8.820;2022-08-21T08:02:26;6.27;;;4.10;;
70967;SDS011;58629;48.808;8.820;2022-08-21T08:04:54;3.85;;;2.85;;
70967;SDS011;58629;48.808;8.820;2022-08-21T08:07:22;4.53;;;2.90;;
70967;SDS011;58629;48.808;8.820;2022-08-21T08:09:48;4.93;;;3.17;;
70967;SDS011;58629;48.808;8.820;2022-08-21T08:12:13;3.90;;;2.70;;
70967;SDS011;58629;48.808;8.820;2022-08-21T08:14:38;4.27;;;3.10;;
70967;SDS011;58629;48.808;8.820;2022-08-21T08:17:04;4.43;;;2.50;;
70967;SDS011;58629;48.808;8.820;2022-08-21T08:19:29;4.30;;;3.10;;
70967;SDS011;58629;48.808;8.820;2022-08-21T08:21:55;5.43;;;3.20;;
70967;SDS011;58629;48.808;8.820;2022-08-21T08:24:20;5.40;;;2.80;;
70967;SDS011;58629;48.808;8.820;2022-08-21T08:26:46;4.67;;;2.80;;
70967;SDS011;58629;48.808;8.820;2022-08-21T08:29:12;6.47;;;3.40;;
70967;SDS011;58629;48.808;8.820;2022-08-21T08:31:37;4.07;;;2.50;;
70967;SDS011;58629;48.808;8.820;2022-08-21T08:34:03;4.05;;;2.65;;
70967;SDS011;58629;48.808;8.820;2022-08-21T08:36:33;2.93;;;2.37;;
70967;SDS011;58629;48.808;8.820;2022-08-21T08:39:00;5.28;;;3.30;;
70967;SDS011;58629;48.808;8.820;2022-08-21T08:41:26;3.87;;;2.67;;
70967;SDS011;58629;48.808;8.820;2022-08-21T08:43:53;3.85;;;2.72;;
70967;SDS011;58629;48.808;8.820;2022-08-21T08:46:26;6.17;;;3.30;;
70967;SDS011;58629;48.808;8.820;2022-08-21T08:52:06;3.95;;;2.70;;
70967;SDS011;58629;48.808;8.820;2022-08-21T08:54:45;3.40;;;2.75;;
70967;SDS011;58629;48.808;8.820;2022-08-21T08:57:19;3.60;;;2.25;;
70967;SDS011;58629;48.808;8.820;2022-08-21T08:59:48;4.50;;;2.67;;
70967;SDS011;58629;48.808;8.820;2022-08-21T09:02:20;3.72;;;2.50;;
70967;SDS011;58629;48.808;8.820;2022-08-21T09:04:48;5.05;;;3.10;;
70967;SDS011;58629;48.808;8.820;2022-08-21T09:18:23;5.00;;;2.97;;
70967;SDS011;58629;48.808;8.820;2022-08-21T09:26:11;3.27;;;2.33;;
70967;SDS011;58629;48.808;8.820;2022-08-21T09:28:37;3.67;;;2.20;;
70967;SDS011;58629;48.808;8.820;2022-08-21T09:31:06;3.63;;;2.65;;
70967;SDS011;58629;48.808;8.820;2022-08-21T09:33:36;3.53;;;2.50;;
70967;SDS011;58629;48.808;8.820;2022-08-21T09:36:02;3.50;;;2.20;;
70967;SDS011;58629;48.808;8.820;2022-08-21T09:38:35;2.97;;;2.27;;
70967;SDS011;58629;48.808;8.820;2022-08-21T09:41:04;4.43;;;2.80;;
70967;SDS011;58629;48.808;8.820;2022-08-21T09:43:32;7.50;;;3.30;;
70967;SDS011;58629;48.808;8.820;2022-08-21T09:46:11;5.10;;;2.80;;
70967;SDS011;58629;48.808;8.820;2022-08-21T09:48:47;4.38;;;2.83;;
70967;SDS011;58629;48.808;8.820;2022-08-21T09:51:17;4.60;;;2.80;;
70967;SDS011;58629;48.808;8.820;2022-08-21T09:53:47;4.13;;;2.33;;
70967;SDS011;58629;48.808;8.820;2022-08-21T09:56:17;3.85;;;2.38;;
70967;SDS011;58629;48.808;8.820;2022-08-21T09:59:13;4.45;;;2.65;;
70967;SDS011;58629;48.808;8.820;2022-08-21T10:01:51;5.05;;;2.65;;
70967;SDS011;58629;48.808;8.820;2022-08-21T10:04:24;3.13;;;2.40;;
70967;SDS011;58629;48.808;8.820;2022-08-21T10:06:53;4.57;;;2.40;;
70967;SDS011;58629;48.808;8.820;2022-08-21T10:09:19;3.87;;;2.73;;
70967;SDS011;58629;48.808;8.820;2022-08-21T10:14:35;4.15;;;2.60;;
70967;SDS011;58629;48.808;8.820;2022-08-21T10:20:13;5.27;;;3.00;;
70967;SDS011;58629;48.808;8.820;2022-08-21T10:25:21;3.80;;;2.50;;
70967;SDS011;58629;48.808;8.820;2022-08-21T10:27:55;2.75;;;2.13;;
70967;SDS011;58629;48.808;8.820;2022-08-21T10:31:28;3.35;;;2.15;;
70967;SDS011;58629;48.808;8.820;2022-08-21T10:33:43;3.13;;;2.07;;
70967;SDS011;58629;48.808;8.820;2022-08-21T10:36:18;5.18;;;2.70;;
70967;SDS011;58629;48.808;8.820;2022-08-21T10:38:58;3.38;;;2.45;;
70967;SDS011;58629;48.808;8.820;2022-08-21T10:44:23;4.30;;;3.00;;
70967;SDS011;58629;48.808;8.820;2022-08-21T10:47:09;4.93;;;3.10;;
70967;SDS011;58629;48.808;8.820;2022-08-21T10:55:16;2.67;;;2.13;;
70967;SDS011;58629;48.808;8.820;2022-08-21T10:57:46;2.95;;;2.50;;
70967;SDS011;58629;48.808;8.820;2022-08-21T11:00:19;4.83;;;2.80;;
70967;SDS011;58629;48.808;8.820;2022-08-21T11:06:39;3.80;;;2.70;;
70967;SDS011;58629;48.808;8.820;2022-08-21T11:08:55;4.18;;;2.70;;
70967;SDS011;58629;48.808;8.820;2022-08-21T11:14:11;4.60;;;2.93;;
70967;SDS011;58629;48.808;8.820;2022-08-21T11:16:46;3.95;;;2.72;;
70967;SDS011;58629;48.808;8.820;2022-08-21T11:19:28;3.78;;;2.70;;
70967;SDS011;58629;48.808;8.820;2022-08-21T11:24:31;2.78;;;2.40;;
70967;SDS011;58629;48.808;8.820;2022-08-21T11:27:36;2.27;;;2.00;;
70967;SDS011;58629;48.808;8.820;2022-08-21T11:30:07;3.92;;;2.70;;
70967;SDS011;58629;48.808;8.820;2022-08-21T11:43:45;3.42;;;2.70;;
70967;SDS011;58629;48.808;8.820;2022-08-21T11:46:36;4.93;;;2.67;;
70967;SDS011;58629;48.808;8.820;2022-08-21T11:54:29;4.27;;;2.60;;
70967;SDS011;58629;48.808;8.820;2022-08-21T11:57:08;3.72;;;2.70;;
70967;SDS011;58629;48.808;8.820;2022-08-21T11:59:49;3.45;;;2.40;;
70967;SDS011;58629;48.808;8.820;2022-08-21T12:02:35;4.85;;;2.83;;
70967;SDS011;58629;48.808;8.820;2022-08-21T12:05:04;6.25;;;3.10;;
70967;SDS011;58629;48.808;8.820;2022-08-21T12:07:37;3.23;;;2.60;;
70967;SDS011;58629;48.808;8.820;2022-08-21T12:10:16;4.07;;;2.70;;
70967;SDS011;58629;48.808;8.820;2022-08-21T12:12:46;4.07;;;3.03;;
70967;SDS011;58629;48.808;8.820;2022-08-21T12:22:52;4.97;;;2.78;;
70967;SDS011;58629;48.808;8.820;2022-08-21T12:25:19;3.30;;;2.45;;
70967;SDS011;58629;48.808;8.820;2022-08-21T12:27:50;3.10;;;2.72;;
70967;SDS011;58629;48.808;8.820;2022-08-21T12:32:56;3.53;;;2.53;;
70967;SDS011;58629;48.808;8.820;2022-08-21T12:35:25;3.00;;;2.50;;
70967;SDS011;58629;48.808;8.820;2022-08-21T12:38:17;3.50;;;2.72;;
70967;SDS011;58629;48.808;8.820;2022-08-21T12:40:48;3.70;;;2.90;;
70967;SDS011;58629;48.808;8.820;2022-08-21T12:43:51;3.70;;;2.50;;
70967;SDS011;58629;48.808;8.820;2022-08-21T12:46:34;3.22;;;2.17;;
70967;SDS011;58629;48.808;8.820;2022-08-21T12:49:09;5.00;;;2.85;;
70967;SDS011;58629;48.808;8.820;2022-08-21T12:51:52;3.92;;;2.70;;
70967;SDS011;58629;48.808;8.820;2022-08-21T12:54:25;3.30;;;2.78;;
70967;SDS011;58629;48.808;8.820;2022-08-21T12:56:56;4.57;;;2.97;;
70967;SDS011;58629;48.808;8.820;2022-08-21T12:59:26;5.10;;;2.88;;
70967;SDS011;58629;48.808;8.820;2022-08-21T13:01:52;3.00;;;2.70;;
70967;SDS011;58629;48.808;8.820;2022-08-21T13:04:21;4.43;;;2.88;;
70967;SDS011;58629;48.808;8.820;2022-08-21T13:06:55;4.53;;;2.90;;
70967;SDS011;58629;48.808;8.820;2022-08-21T13:09:26;3.87;;;2.70;;
70967;SDS011;58629;48.808;8.820;2022-08-21T13:11:55;3.83;;;2.70;;
70967;SDS011;58629;48.808;8.820;2022-08-21T13:14:29;3.70;;;2.83;;
70967;SDS011;58629;48.808;8.820;2022-08-21T13:16:57;3.67;;;2.22;;
70967;SDS011;58629;48.808;8.820;2022-08-21T13:19:24;3.03;;;2.40;;
70967;SDS011;58629;48.808;8.820;2022-08-21T13:21:50;2.63;;;2.40;;
70967;SDS011;58629;48.808;8.820;2022-08-21T13:24:25;3.25;;;2.47;;
70967;SDS011;58629;48.808;8.820;2022-08-21T13:26:52;3.78;;;2.60;;
70967;SDS011;58629;48.808;8.820;2022-08-21T13:29:19;3.95;;;2.70;;
70967;SDS011;58629;48.808;8.820;2022-08-21T13:31:48;3.80;;;2.78;;
70967;SDS011;58629;48.808;8.820;2022-08-21T13:34:17;3.67;;;2.60;;
70967;SDS011;58629;48.808;8.820;2022-08-21T13:36:43;3.42;;;2.40;;
70967;SDS011;58629;48.808;8.820;2022-08-21T13:39:12;2.50;;;2.22;;
70967;SDS011;58629;48.808;8.820;2022-08-21T13:41:42;2.17;;;1.90;;
70967;SDS011;58629;48.808;8.820;2022-08-21T13:46:40;2.80;;;2.30;;
70967;SDS011;58629;48.808;8.820;2022-08-21T13:49:07;3.33;;;2.72;;
70967;SDS011;58629;48.808;8.820;2022-08-21T13:51:34;4.60;;;2.80;;
70967;SDS011;58629;48.808;8.820;2022-08-21T13:54:01;3.92;;;2.63;;
70967;SDS011;58629;48.808;8.820;2022-08-21T13:56:42;4.00;;;2.90;;
70967;SDS011;58629;48.808;8.820;2022-08-21T13:59:09;2.90;;;2.60;;
70967;SDS011;58629;48.808;8.820;2022-08-21T14:01:39;2.95;;;2.30;;
70967;SDS011;58629;48.808;8.820;2022-08-21T14:04:25;2.97;;;2.33;;
70967;SDS011;58629;48.808;8.820;2022-08-21T14:06:56;3.88;;;2.90;;
70967;SDS011;58629;48.808;8.820;2022-08-21T14:11:53;2.23;;;2.03;;
70967;SDS011;58629;48.808;8.820;2022-08-21T14:14:22;3.28;;;2.33;;
70967;SDS011;58629;48.808;8.820;2022-08-21T14:17:01;2.80;;;2.53;;
70967;SDS011;58629;48.808;8.820;2022-08-21T14:19:40;2.47;;;2.20;;
70967;SDS011;58629;48.808;8.820;2022-08-21T14:22:29;2.40;;;2.20;;
70967;SDS011;58629;48.808;8.820;2022-08-21T14:25:03;3.33;;;2.43;;
70967;SDS011;58629;48.808;8.820;2022-08-21T14:27:42;4.50;;;3.10;;
70967;SDS011;58629;48.808;8.820;2022-08-21T14:30:12;5.20;;;3.10;;
70967;SDS011;58629;48.808;8.820;2022-08-21T14:32:42;3.58;;;2.70;;
70967;SDS011;58629;48.808;8.820;2022-08-21T14:35:08;5.47;;;2.70;;
70967;SDS011;58629;48.808;8.820;2022-08-21T14:37:34;4.60;;;3.20;;
70967;SDS011;58629;48.808;8.820;2022-08-21T14:40:00;4.40;;;2.80;;
70967;SDS011;58629;48.808;8.820;2022-08-21T14:42:26;3.45;;;2.92;;
70967;SDS011;58629;48.808;8.820;2022-08-21T14:44:51;4.03;;;2.63;;
70967;SDS011;58629;48.808;8.820;2022-08-21T14:47:22;6.07;;;3.33;;
70967;SDS011;58629;48.808;8.820;2022-08-21T14:49:47;4.23;;;3.10;;
70967;SDS011;58629;48.808;8.820;2022-08-21T14:52:12;5.50;;;3.17;;
70967;SDS011;58629;48.808;8.820;2022-08-21T14:54:38;3.13;;;2.70;;
70967;SDS011;58629;48.808;8.820;2022-08-21T14:57:05;3.57;;;2.60;;
70967;SDS011;58629;48.808;8.820;2022-08-21T14:59:33;3.13;;;2.67;;
70967;SDS011;58629;48.808;8.820;2022-08-21T15:02:00;4.88;;;2.90;;
70967;SDS011;58629;48.808;8.820;2022-08-21T15:04:28;2.92;;;2.50;;
70967;SDS011;58629;48.808;8.820;2022-08-21T15:06:54;4.13;;;2.83;;
70967;SDS011;58629;48.808;8.820;2022-08-21T15:09:20;3.90;;;2.58;;
70967;SDS011;58629;48.808;8.820;2022-08-21T15:11:46;3.20;;;2.73;;
70967;SDS011;58629;48.808;8.820;2022-08-21T15:14:19;5.65;;;2.50;;
70967;SDS011;58629;48.808;8.820;2022-08-21T15:16:47;3.00;;;2.33;;
70967;SDS011;58629;48.808;8.820;2022-08-21T15:19:13;3.65;;;2.70;;
70967;SDS011;58629;48.808;8.820;2022-08-21T15:21:38;4.83;;;3.00;;
70967;SDS011;58629;48.808;8.820;2022-08-21T15:24:04;4.00;;;3.00;;
70967;SDS011;58629;48.808;8.820;2022-08-21T15:26:29;3.70;;;2.83;;
70967;SDS011;58629;48.808;8.820;2022-08-21T15:28:55;4.70;;;2.70;;
70967;SDS011;58629;48.808;8.820;2022-08-21T15:31:20;4.20;;;2.80;;
70967;SDS011;58629;48.808;8.820;2022-08-21T15:33:45;3.97;;;2.80;;
70967;SDS011;58629;48.808;8.820;2022-08-21T15:36:11;5.97;;;2.70;;
70967;SDS011;58629;48.808;8.820;2022-08-21T15:38:36;3.85;;;2.85;;
70967;SDS011;58629;48.808;8.820;2022-08-21T15:41:02;3.67;;;2.83;;
70967;SDS011;58629;48.808;8.820;2022-08-21T15:43:35;4.25;;;2.90;;
70967;SDS011;58629;48.808;8.820;2022-08-21T15:46:06;3.63;;;3.00;;
70967;SDS011;58629;48.808;8.820;2022-08-21T15:48:36;3.73;;;2.70;;
70967;SDS011;58629;48.808;8.820;2022-08-21T15:51:01;4.40;;;2.67;;
70967;SDS011;58629;48.808;8.820;2022-08-21T15:53:26;3.10;;;2.43;;
70967;SDS011;58629;48.808;8.820;2022-08-21T15:55:52;4.90;;;2.97;;
70967;SDS011;58629;48.808;8.820;2022-08-21T15:58:18;4.87;;;2.50;;
70967;SDS011;58629;48.808;8.820;2022-08-21T16:00:45;5.20;;;2.92;;
70967;SDS011;58629;48.808;8.820;2022-08-21T16:03:12;3.58;;;2.50;;
70967;SDS011;58629;48.808;8.820;2022-08-21T16:05:41;2.50;;;2.30;;
70967;SDS011;58629;48.808;8.820;2022-08-21T16:08:08;2.47;;;2.20;;
70967;SDS011;58629;48.808;8.820;2022-08-21T16:10:34;9.00;;;3.00;;
70967;SDS011;58629;48.808;8.820;2022-08-21T16:13:02;3.80;;;2.63;;